Time;durP1;ratioP1;P1;durP2;ratioP2;P2;SDS_P1;SDS_P2;PMS_P1;PMS_P2;Temp;Humidity;BMP_temperature;BMP_pressure;BME280_temperature;BME280_humidity;BME280_pressure;Samples;Min_cycle;Max_cycle;Signal;HPM_P1;HPM_P2
2022/10/30 00:01:51;;;;;;;21.75;12.23;;;;;;;;;;5134565;27;20050;-83
2022/10/30 00:04:36;;;;;;;24.40;13.45;;;;;;;;;;5134939;27;20179;-83
2022/10/30 00:07:20;;;;;;;24.65;12.95;;;14.10;99.90;;;;;;5119686;27;20091;-83
2022/10/30 00:10:05;;;;;;;23.38;12.20;;;14.00;99.90;;;;;;5118946;27;20038;-83
2022/10/30 00:12:49;;;;;;;26.33;12.75;;;14.10;99.90;;;;;;5134610;27;20060;-84
2022/10/30 00:15:34;;;;;;;23.92;11.88;;;14.10;99.90;;;;;;5135035;27;20033;-83
2022/10/30 00:18:19;;;;;;;27.50;11.85;;;14.20;99.90;;;;;;5134917;27;20058;-83
2022/10/30 00:21:09;;;;;;;26.23;12.30;;;14.10;99.90;;;;;;5134164;27;20037;-83
2022/10/30 00:23:53;;;;;;;24.13;13.20;;;14.20;99.90;;;;;;5134439;27;20050;-84
2022/10/30 00:26:37;;;;;;;21.45;11.68;;;;;;;;;;5134470;27;20510;-83
2022/10/30 00:29:23;;;;;;;22.25;12.90;;;;;;;;;;5134651;27;20042;-83
2022/10/30 00:32:08;;;;;;;21.98;11.85;;;;;;;;;;5122167;27;20077;-83
2022/10/30 00:34:52;;;;;;;26.42;12.55;;;14.20;99.90;;;;;;5118695;27;20038;-84
2022/10/30 00:37:37;;;;;;;24.15;13.38;;;;;;;;;;5118994;27;20163;-83
2022/10/30 00:40:22;;;;;;;25.95;13.38;;;;;;;;;;5134416;27;20101;-83
2022/10/30 00:43:26;;;;;;;22.35;11.85;;;14.10;99.90;;;;;;5133593;27;20043;-83
2022/10/30 00:46:22;;;;;;;25.15;11.90;;;14.10;99.90;;;;;;5118307;27;20493;-83
2022/10/30 00:49:12;;;;;;;22.42;11.32;;;14.10;99.90;;;;;;5133510;27;20543;-83
2022/10/30 00:51:57;;;;;;;28.25;12.93;;;;;;;;;;5119732;27;20097;-83
2022/10/30 00:54:42;;;;;;;25.20;11.55;;;;;;;;;;5106516;27;20029;-83
2022/10/30 00:57:27;;;;;;;26.88;12.10;;;;;;;;;;5118428;27;20104;-83
2022/10/30 01:00:12;;;;;;;20.70;12.02;;;14.10;99.90;;;;;;5117968;27;20487;-83
2022/10/30 01:02:57;;;;;;;28.02;12.18;;;14.10;99.90;;;;;;5112861;27;20434;-83
2022/10/30 01:05:47;;;;;;;22.52;12.70;;;14.10;99.90;;;;;;5133698;27;20092;-83
2022/10/30 01:08:32;;;;;;;19.95;11.50;;;14.10;99.90;;;;;;5133758;27;20057;-83
2022/10/30 01:11:17;;;;;;;24.52;12.07;;;;;;;;;;5099020;27;20093;-84
2022/10/30 01:14:05;;;;;;;23.40;11.30;;;14.10;99.90;;;;;;5133337;27;20042;-83
2022/10/30 01:17:17;;;;;;;26.10;11.57;;;14.00;99.90;;;;;;5133589;27;20031;-83
2022/10/30 01:20:17;;;;;;;21.65;11.25;;;14.10;99.90;;;;;;5102890;27;20033;-83
2022/10/30 01:23:20;;;;;;;20.60;10.82;;;14.10;99.90;;;;;;5133254;27;20054;-83
2022/10/30 01:26:21;;;;;;;21.10;11.03;;;14.10;99.90;;;;;;5133168;27;20538;-83
2022/10/30 01:29:14;;;;;;;34.67;13.05;;;14.00;99.90;;;;;;5133096;27;20306;-83
2022/10/30 01:32:19;;;;;;;23.85;11.18;;;14.00;99.90;;;;;;5117886;27;20069;-82
2022/10/30 01:35:14;;;;;;;21.30;12.13;;;14.00;99.90;;;;;;5132370;27;20042;-83
2022/10/30 01:38:11;;;;;;;21.20;11.77;;;14.00;99.90;;;;;;5123966;27;20076;-83
2022/10/30 01:40:55;;;;;;;26.42;11.48;;;;;;;;;;5133415;27;20110;-83
2022/10/30 01:43:40;;;;;;;26.27;11.88;;;;;;;;;;5117636;27;20100;-82
2022/10/30 01:46:46;;;;;;;20.85;12.25;;;13.50;99.90;;;;;;5117306;27;20212;-83
2022/10/30 01:49:49;;;;;;;26.75;11.40;;;14.10;99.90;;;;;;5133140;27;20107;-83
2022/10/30 01:52:57;;;;;;;26.75;11.52;;;14.00;99.90;;;;;;5133045;27;20505;-83
2022/10/30 01:56:07;;;;;;;24.00;11.60;;;14.10;99.90;;;;;;5133132;28;20502;-82
2022/10/30 01:59:05;;;;;;;20.10;9.73;;;14.00;99.90;;;;;;5132942;28;20213;-83
2022/10/30 02:01:49;;;;;;;20.58;10.98;;;;;;;;;;5135475;27;20088;-83
2022/10/30 02:04:34;;;;;;;21.73;10.27;;;14.10;99.90;;;;;;5137196;27;20060;-83
2022/10/30 02:07:19;;;;;;;21.13;11.10;;;14.10;99.90;;;;;;5121158;27;20042;-83
2022/10/30 02:10:04;;;;;;;22.80;10.60;;;14.10;99.90;;;;;;5113771;28;20057;-82
2022/10/30 02:12:49;;;;;;;25.85;12.23;;;14.10;99.90;;;;;;5103573;27;20050;-82
2022/10/30 02:15:33;;;;;;;26.58;12.10;;;;;;;;;;5121213;27;20510;-82
2022/10/30 02:18:18;;;;;;;25.85;11.68;;;;;;;;;;5136501;27;20037;-83
2022/10/30 02:21:02;;;;;;;19.25;11.75;;;;;;;;;;5137144;27;20602;-83
2022/10/30 02:23:47;;;;;;;20.27;12.90;;;14.20;99.90;;;;;;5136850;27;20050;-82
2022/10/30 02:26:31;;;;;;;;;;;14.10;99.90;;;;;;5136622;27;20148;-83
2022/10/30 02:29:19;;;;;;;26.42;12.27;;;14.10;99.90;;;;;;5120982;27;19960;-83
2022/10/30 02:32:03;;;;;;;22.77;10.77;;;14.10;99.90;;;;;;5122067;27;20438;-83
2022/10/30 02:34:48;;;;;;;22.63;11.07;;;;;;;;;;5121138;27;20042;-83
2022/10/30 02:37:34;;;;;;;21.52;10.98;;;14.10;99.90;;;;;;5136367;27;20062;-83
2022/10/30 02:40:18;;;;;;;21.33;12.35;;;14.10;99.90;;;;;;5136099;27;20039;-83
2022/10/30 02:43:03;;;;;;;17.85;10.73;;;;;;;;;;5136849;27;20399;-82
2022/10/30 02:45:50;;;;;;;21.33;11.02;;;14.20;99.90;;;;;;5121126;27;20053;-82
2022/10/30 02:48:35;;;;;;;22.63;11.35;;;;;;;;;;5120431;27;20034;-83
2022/10/30 02:51:19;;;;;;;23.30;11.00;;;14.20;99.90;;;;;;5136138;27;20038;-83
2022/10/30 02:54:04;;;;;;;25.77;11.63;;;;;;;;;;5136327;27;20512;-82
2022/10/30 02:56:49;;;;;;;21.27;10.43;;;;;;;;;;5136233;27;20391;-83
2022/10/30 02:59:33;;;;;;;23.77;10.93;;;14.10;99.90;;;;;;5135894;27;20046;-83
2022/10/30 03:02:18;;;;;;;20.02;10.68;;;;;;;;;;5135803;27;20524;-83
2022/10/30 03:05:02;;;;;;;24.33;11.38;;;14.10;99.90;;;;;;5136344;27;20061;-82
2022/10/30 03:07:47;;;;;;;24.52;10.85;;;14.10;99.90;;;;;;5120874;27;20110;-83
2022/10/30 03:10:31;;;;;;;23.30;11.75;;;14.10;99.90;;;;;;5123691;27;20057;-83
2022/10/30 03:13:16;;;;;;;23.60;10.85;;;;;;;;;;5121884;27;20049;-82
2022/10/30 03:16:06;;;;;;;22.75;10.90;;;14.00;99.90;;;;;;5120565;27;20092;-82
2022/10/30 03:18:51;;;;;;;22.42;11.13;;;14.00;99.90;;;;;;5136040;27;20115;-83
2022/10/30 03:21:36;;;;;;;20.35;11.20;;;;;;;;;;5119660;27;20034;-83
2022/10/30 03:24:20;;;;;;;26.13;11.23;;;14.00;99.90;;;;;;5120418;27;20053;-82
2022/10/30 03:27:05;;;;;;;19.35;10.68;;;14.00;99.90;;;;;;5120365;27;20038;-83
2022/10/30 03:29:50;;;;;;;26.02;12.32;;;;;;;;;;5120111;27;20053;-82
2022/10/30 03:32:34;;;;;;;20.20;10.88;;;13.90;99.90;;;;;;5119756;27;20125;-83
2022/10/30 03:35:18;;;;;;;23.45;11.25;;;;;;;;;;5135519;27;20100;-82
2022/10/30 03:38:03;;;;;;;24.77;11.85;;;13.80;99.90;;;;;;5135542;27;20038;-83
2022/10/30 03:40:47;;;;;;;23.83;11.15;;;13.80;99.90;;;;;;5119532;27;20131;-83
2022/10/30 03:43:31;;;;;;;25.67;11.70;;;13.80;99.90;;;;;;5134819;27;20126;-83
2022/10/30 03:46:15;;;;;;;20.10;11.55;;;13.70;99.90;;;;;;5119943;27;20448;-83
2022/10/30 03:49:00;;;;;;;23.92;11.85;;;13.70;99.90;;;;;;5135449;27;20462;-83
2022/10/30 03:51:44;;;;;;;19.90;11.07;;;;;;;;;;5119233;27;20139;-82
2022/10/30 03:54:28;;;;;;;22.38;13.05;;;13.60;99.90;;;;;;5119377;27;20092;-83
2022/10/30 03:57:12;;;;;;;22.92;11.52;;;13.70;99.90;;;;;;5135183;27;20580;-83
2022/10/30 03:59:57;;;;;;;24.92;12.63;;;;;;;;;;5119678;27;20398;-83
2022/10/30 04:02:49;;;;;;;29.35;12.27;;;13.60;99.90;;;;;;5134592;27;20146;-83
2022/10/30 04:05:34;;;;;;;21.98;12.25;;;13.60;99.90;;;;;;5118874;27;20058;-83
2022/10/30 04:08:19;;;;;;;32.83;13.40;;;;;;;;;;5135074;27;20395;-83
2022/10/30 04:11:04;;;;;;;26.40;12.60;;;;;;;;;;5120316;27;20097;-82
2022/10/30 04:13:49;;;;;;;26.13;11.77;;;;;;;;;;5134494;27;20095;-82
2022/10/30 04:16:33;;;;;;;32.30;12.57;;;;;;;;;;5134191;27;20092;-83
2022/10/30 04:19:18;;;;;;;27.95;12.25;;;;;;;;;;5134855;27;20111;-82
2022/10/30 04:22:02;;;;;;;21.38;12.15;;;;;;;;;;5134575;27;20464;-82
2022/10/30 04:24:47;;;;;;;22.63;12.55;;;;;;;;;;5133857;27;20103;-83
2022/10/30 04:27:41;;;;;;;21.90;12.60;;;13.40;99.90;;;;;;5119052;27;20037;-83
2022/10/30 04:30:26;;;;;;;21.38;12.32;;;;;;;;;;5121651;27;20087;-82
2022/10/30 04:33:11;;;;;;;19.20;12.27;;;13.30;99.90;;;;;;5134573;27;20038;-82
2022/10/30 04:35:56;;;;;;;23.60;12.13;;;;;;;;;;5118384;27;20099;-82
2022/10/30 04:38:41;;;;;;;24.55;13.18;;;;;;;;;;5133816;27;20421;-83
2022/10/30 04:41:25;;;;;;;23.92;14.75;;;13.20;99.90;;;;;;5134416;27;20045;-82
2022/10/30 04:44:09;;;;;;;26.05;12.10;;;13.20;99.90;;;;;;5134394;27;20490;-82
2022/10/30 04:46:54;;;;;;;24.23;13.35;;;;;;;;;;5133595;27;20900;-83
2022/10/30 04:49:38;;;;;;;27.52;14.13;;;13.20;99.90;;;;;;5118306;27;20083;-83
2022/10/30 04:52:22;;;;;;;22.75;12.50;;;13.20;99.90;;;;;;5104412;27;20038;-83
2022/10/30 04:55:08;;;;;;;22.52;12.65;;;13.20;99.90;;;;;;5118722;27;20042;-83
2022/10/30 04:57:56;;;;;;;23.58;13.00;;;13.10;99.90;;;;;;5133510;27;20112;-83
2022/10/30 05:00:40;;;;;;;34.03;13.88;;;13.10;99.90;;;;;;5133367;27;20155;-83
2022/10/30 05:03:25;;;;;;;23.13;13.25;;;;;;;;;;5104051;27;20437;-83
2022/10/30 05:06:23;;;;;;;24.38;13.10;;;13.10;99.90;;;;;;5118509;27;20042;-83
2022/10/30 05:09:07;;;;;;;28.35;13.45;;;13.10;99.90;;;;;;5133713;27;20505;-83
2022/10/30 05:11:51;;;;;;;;;;;13.10;99.90;;;;;;5122042;27;20041;-82
2022/10/30 05:14:36;;;;;;;27.92;13.80;;;;;;;;;;5112217;27;19919;-83
2022/10/30 05:17:21;;;;;;;29.73;14.20;;;;;;;;;;5133805;27;20143;-82
2022/10/30 05:20:06;;;;;;;32.28;13.35;;;13.00;99.90;;;;;;5133550;27;20097;-83
2022/10/30 05:22:58;;;;;;;28.60;14.82;;;13.00;99.90;;;;;;5132674;27;20172;-82
2022/10/30 05:25:42;;;;;;;29.08;13.75;;;13.00;99.90;;;;;;5117650;27;20099;-83
2022/10/30 05:28:26;;;;;;;29.60;14.32;;;13.00;99.90;;;;;;5133397;27;20084;-82
2022/10/30 05:31:10;;;;;;;27.67;13.77;;;;;;;;;;5133657;27;20042;-82
2022/10/30 05:33:55;;;;;;;27.73;14.82;;;12.90;99.90;;;;;;5132973;27;20038;-83
2022/10/30 05:36:40;;;;;;;26.38;12.80;;;;;;;;;;5117035;27;20041;-83
2022/10/30 05:39:24;;;;;;;24.08;14.23;;;12.90;99.90;;;;;;5133615;27;20043;-83
2022/10/30 05:42:08;;;;;;;31.08;14.30;;;;;;;;;;5117371;27;20064;-83
2022/10/30 05:44:53;;;;;;;26.25;12.90;;;;;;;;;;5132557;27;20058;-83
2022/10/30 05:47:37;;;;;;;26.33;14.20;;;12.90;99.90;;;;;;5133333;27;20070;-82
2022/10/30 05:50:22;;;;;;;28.08;14.48;;;12.80;99.90;;;;;;5133219;27;20042;-82
2022/10/30 05:53:06;;;;;;;25.73;13.75;;;12.90;99.90;;;;;;5117269;27;20163;-82
2022/10/30 05:55:51;;;;;;;26.52;13.60;;;;;;;;;;5117186;28;20436;-83
2022/10/30 05:58:35;;;;;;;25.70;13.77;;;12.80;99.90;;;;;;5133147;28;20078;-82
2022/10/30 06:01:19;;;;;;;26.45;14.38;;;12.70;99.90;;;;;;5133240;28;20070;-83
2022/10/30 06:04:03;;;;;;;27.02;14.20;;;12.70;99.90;;;;;;5117010;28;20046;-83
2022/10/30 06:06:48;;;;;;;29.38;14.45;;;;;;;;;;5132919;28;20449;-83
2022/10/30 06:09:32;;;;;;;30.35;14.65;;;12.60;99.90;;;;;;5129460;28;20081;-82
2022/10/30 06:12:17;;;;;;;30.27;15.13;;;;;;;;;;5109603;28;20043;-82
2022/10/30 06:15:02;;;;;;;26.48;14.35;;;12.60;99.90;;;;;;5132541;28;20115;-83
2022/10/30 06:17:46;;;;;;;22.48;13.85;;;12.60;99.90;;;;;;5132790;28;20058;-83
2022/10/30 06:20:30;;;;;;;29.95;15.93;;;12.60;99.90;;;;;;5132801;28;20093;-82
2022/10/30 06:23:15;;;;;;;28.55;14.38;;;;;;;;;;5122080;28;20062;-82
2022/10/30 06:25:59;;;;;;;31.45;15.52;;;12.50;99.90;;;;;;5132426;28;20437;-83
2022/10/30 06:28:43;;;;;;;;;;;12.50;99.90;;;;;;5132783;28;20084;-82
2022/10/30 06:31:27;;;;;;;28.50;15.93;;;12.50;99.90;;;;;;5117199;28;20093;-82
2022/10/30 06:34:12;;;;;;;31.08;14.68;;;;;;;;;;5132344;28;20062;-83
2022/10/30 06:36:56;;;;;;;30.55;14.90;;;12.40;99.90;;;;;;5116669;28;20115;-83
2022/10/30 06:39:39;;;;;;;;;;;12.40;99.90;;;;;;5117896;28;20033;-82
2022/10/30 06:42:24;;;;;;;29.67;14.73;;;12.30;99.90;;;;;;5117193;28;19966;-83
2022/10/30 06:45:08;;;;;;;38.05;15.77;;;12.30;99.90;;;;;;5116457;28;20506;-83
2022/10/30 06:47:53;;;;;;;25.23;15.05;;;12.30;99.90;;;;;;5119396;27;20104;-82
2022/10/30 06:50:37;;;;;;;32.85;16.20;;;;;;;;;;5136418;27;20115;-82
2022/10/30 06:53:22;;;;;;;27.58;16.25;;;12.30;99.90;;;;;;5136417;27;20531;-83
2022/10/30 06:56:07;;;;;;;28.85;15.90;;;12.30;99.90;;;;;;5120535;27;20439;-83
2022/10/30 06:58:52;;;;;;;25.83;15.00;;;;;;;;;;5120763;27;20450;-83
2022/10/30 07:01:36;;;;;;;28.08;15.45;;;12.50;99.90;;;;;;5136257;27;20043;-83
2022/10/30 07:04:20;;;;;;;36.00;17.90;;;12.50;99.90;;;;;;5135835;27;20042;-83
2022/10/30 07:07:05;;;;;;;29.08;16.55;;;12.50;99.90;;;;;;5135605;27;20174;-83
2022/10/30 07:09:49;;;;;;;27.27;15.80;;;12.50;99.90;;;;;;5114836;28;20116;-83
2022/10/30 07:12:33;;;;;;;29.63;16.25;;;;;;;;;;5114775;27;20069;-83
2022/10/30 07:15:18;;;;;;;24.83;14.90;;;;;;;;;;5135656;27;20823;-82
2022/10/30 07:18:03;;;;;;;28.85;17.02;;;12.70;99.90;;;;;;5136079;27;20054;-83
2022/10/30 07:20:47;;;;;;;31.60;16.67;;;;;;;;;;5140587;27;20070;-84
2022/10/30 07:23:32;;;;;;;26.02;15.90;;;12.80;99.90;;;;;;5123756;27;20397;-82
2022/10/30 07:26:16;;;;;;;32.67;15.73;;;12.90;99.90;;;;;;5141889;27;20495;-82
2022/10/30 07:29:00;;;;;;;26.95;15.45;;;12.90;99.90;;;;;;5123463;27;20038;-82
2022/10/30 07:31:48;;;;;;;28.45;15.98;;;13.00;99.90;;;;;;5104965;27;20136;-82
2022/10/30 07:34:33;;;;;;;30.60;15.95;;;;;;;;;;5127426;27;20141;-82
2022/10/30 07:37:17;;;;;;;27.80;16.75;;;13.10;99.90;;;;;;5128840;27;20037;-82
2022/10/30 07:40:02;;;;;;;30.23;16.15;;;13.20;99.90;;;;;;5131765;27;20041;-83
2022/10/30 07:42:47;;;;;;;27.00;15.48;;;;;;;;;;5132402;27;20539;-82
2022/10/30 07:45:31;;;;;;;30.70;15.68;;;13.30;99.90;;;;;;5144078;27;20050;-82
2022/10/30 07:48:15;;;;;;;23.33;14.35;;;13.40;99.90;;;;;;5148887;27;20041;-82
2022/10/30 07:51:00;;;;;;;22.63;13.57;;;;;;;;;;5145616;27;20079;-82
2022/10/30 07:53:44;;;;;;;22.02;13.73;;;13.70;99.90;;;;;;5130577;27;20045;-82
2022/10/30 07:56:28;;;;;;;22.27;13.68;;;13.90;99.90;;;;;;5126617;27;20088;-83
2022/10/30 07:59:12;;;;;;;25.08;14.65;;;14.00;99.90;;;;;;5116936;27;20080;-83
2022/10/30 08:01:56;;;;;;;25.02;13.05;;;14.10;99.90;;;;;;5145719;27;20129;-83
2022/10/30 08:04:40;;;;;;;30.13;15.43;;;14.20;99.90;;;;;;5135914;27;20064;-83
2022/10/30 08:07:33;;;;;;;30.67;14.65;;;14.00;99.90;;;;;;5117204;27;20039;-87
2022/10/30 08:10:17;;;;;;;25.73;13.55;;;14.20;99.90;;;;;;5116492;27;20060;-83
2022/10/30 08:13:01;;;;;;;27.67;15.32;;;;;;;;;;5117294;27;20079;-84
2022/10/30 08:15:47;;;;;;;21.08;13.48;;;;;;;;;;5119495;27;20402;-83
2022/10/30 08:18:32;;;;;;;20.38;14.73;;;;;;;;;;5118901;27;20453;-83
2022/10/30 08:21:16;;;;;;;26.67;13.27;;;14.40;99.90;;;;;;5134119;27;20549;-84
2022/10/30 08:24:00;;;;;;;25.17;14.13;;;;;;;;;;5119152;27;20134;-83
2022/10/30 08:26:44;;;;;;;25.67;14.13;;;14.70;99.90;;;;;;5119031;27;20076;-83
2022/10/30 08:29:29;;;;;;;24.42;13.45;;;14.80;99.90;;;;;;5118619;27;20168;-84
2022/10/30 08:32:14;;;;;;;21.88;13.88;;;;;;;;;;5122094;27;20046;-85
2022/10/30 08:34:58;;;;;;;26.40;13.38;;;15.10;99.90;;;;;;5134504;27;20034;-85
2022/10/30 08:37:43;;;;;;;19.95;13.48;;;;;;;;;;5104787;27;20037;-85
2022/10/30 08:40:27;;;;;;;25.27;13.35;;;;;;;;;;5133791;27;20042;-85
2022/10/30 08:43:12;;;;;;;27.00;13.30;;;;;;;;;;5117648;27;20560;-83
2022/10/30 08:45:59;;;;;;;22.55;13.35;;;15.50;99.90;;;;;;5118392;27;20402;-87
2022/10/30 08:48:43;;;;;;;27.02;12.65;;;15.70;99.90;;;;;;5134177;27;20043;-84
2022/10/30 08:51:31;;;;;;;25.55;12.95;;;15.90;99.90;;;;;;5139345;27;20034;-84
2022/10/30 08:54:15;;;;;;;23.85;12.60;;;16.10;99.90;;;;;;5123971;27;20078;-84
2022/10/30 08:57:01;;;;;;;18.65;12.18;;;16.60;99.90;;;;;;5113455;27;20454;-84
2022/10/30 08:59:45;;;;;;;19.73;11.98;;;16.60;99.90;;;;;;5141464;27;20452;-84
2022/10/30 09:02:29;;;;;;;23.70;13.32;;;16.80;99.90;;;;;;5133585;27;20038;-83
2022/10/30 09:05:14;;;;;;;23.95;11.57;;;17.00;99.90;;;;;;5105250;27;20054;-84
2022/10/30 09:07:59;;;;;;;19.95;11.65;;;17.20;99.90;;;;;;5105493;27;20034;-83
2022/10/30 09:10:43;;;;;;;21.00;11.20;;;17.40;99.90;;;;;;5123352;27;20047;-82
2022/10/30 09:13:27;;;;;;;20.65;11.65;;;17.50;99.90;;;;;;5123037;27;20506;-83
2022/10/30 09:16:12;;;;;;;21.95;10.82;;;17.90;99.90;;;;;;5133199;27;20034;-86
2022/10/30 09:18:56;;;;;;;18.85;11.35;;;18.00;99.90;;;;;;5135110;27;20091;-83
2022/10/30 09:21:40;;;;;;;20.20;10.98;;;18.00;99.90;;;;;;5123663;27;20105;-83
2022/10/30 09:24:24;;;;;;;17.48;10.60;;;18.10;99.90;;;;;;5115775;27;20099;-83
2022/10/30 09:27:08;;;;;;;21.50;10.88;;;18.70;99.90;;;;;;5142193;27;20502;-83
2022/10/30 09:29:53;;;;;;;19.33;10.60;;;18.50;99.90;;;;;;5128450;27;20046;-83
2022/10/30 09:32:37;;;;;;;20.67;10.60;;;18.70;99.90;;;;;;5128993;27;20091;-83
2022/10/30 09:35:21;;;;;;;19.00;10.90;;;18.80;99.90;;;;;;5140840;27;20029;-83
2022/10/30 09:38:05;;;;;;;20.38;10.20;;;19.00;99.90;;;;;;5130851;27;20451;-84
2022/10/30 09:41:26;;;;;;;21.90;10.45;;;19.10;99.90;;;;;;5142469;27;20502;-83
2022/10/30 09:44:16;;;;;;;20.48;10.85;;;19.10;99.90;;;;;;5142074;27;20038;-83
2022/10/30 09:47:03;;;;;;;25.38;11.40;;;19.10;99.90;;;;;;5142838;27;20034;-83
2022/10/30 09:50:24;;;;;;;17.33;10.10;;;19.20;99.90;;;;;;5146054;27;20098;-83
2022/10/30 09:53:24;;;;;;;18.08;9.57;;;19.20;99.90;;;;;;5030023;28;20043;-83
2022/10/30 09:56:22;;;;;;;21.95;10.95;;;19.30;99.90;;;;;;5123323;27;20087;-83
2022/10/30 10:00:03;;;;;;;16.30;10.38;;;19.40;99.90;;;;;;5141133;27;20101;-83
2022/10/30 10:02:55;;;;;;;19.67;10.00;;;19.40;99.90;;;;;;5114240;27;20490;-83
2022/10/30 10:05:39;;;;;;;19.85;10.13;;;19.50;99.90;;;;;;5142665;27;20035;-83
2022/10/30 10:08:33;;;;;;;17.13;9.80;;;19.60;99.90;;;;;;5145742;27;20033;-83
2022/10/30 10:11:47;;;;;;;20.17;9.30;;;20.00;99.90;;;;;;5118605;28;20107;-83
2022/10/30 10:14:36;;;;;;;19.85;9.25;;;20.00;99.90;;;;;;5132481;28;20096;-83
2022/10/30 10:17:50;;;;;;;22.95;9.45;;;20.00;99.90;;;;;;5117599;28;20031;-83
2022/10/30 10:20:36;;;;;;;;;;;20.20;99.90;;;;;;5110954;28;20054;-83
2022/10/30 10:23:58;;;;;;;17.05;8.85;;;20.30;99.90;;;;;;5135890;27;19958;-83
2022/10/30 10:26:52;;;;;;;15.88;8.55;;;20.30;99.90;;;;;;5094130;27;20089;-83
2022/10/30 10:30:01;;;;;;;15.25;8.45;;;20.60;99.90;;;;;;5120826;27;20129;-83
2022/10/30 10:33:03;;;;;;;19.33;9.05;;;20.60;99.90;;;;;;5120935;27;20118;-83
2022/10/30 10:36:16;;;;;;;16.88;8.63;;;20.70;99.90;;;;;;5125693;27;20034;-83
2022/10/30 10:39:03;;;;;;;20.35;9.68;;;20.80;99.90;;;;;;5121497;27;20072;-83
2022/10/30 10:41:53;;;;;;;15.60;8.13;;;20.70;99.90;;;;;;5120510;27;20081;-83
2022/10/30 10:44:43;;;;;;;17.35;8.48;;;20.50;99.90;;;;;;5136266;27;20037;-84
2022/10/30 10:47:45;;;;;;;18.65;9.68;;;20.40;99.90;;;;;;5136863;27;20037;-83
2022/10/30 10:50:44;;;;;;;17.52;8.70;;;20.20;99.90;;;;;;5120879;27;20075;-83
2022/10/30 10:54:15;;;;;;;16.77;9.15;;;20.20;99.90;;;;;;5120999;27;20509;-83
2022/10/30 10:57:00;;;;;;;16.85;8.98;;;20.10;99.90;;;;;;5135481;27;20532;-83
2022/10/30 10:59:51;;;;;;;15.25;6.97;;;20.00;99.90;;;;;;5129292;27;20037;-83
2022/10/30 11:02:39;;;;;;;18.88;8.27;;;19.90;99.90;;;;;;5136042;27;20042;-83
2022/10/30 11:05:35;;;;;;;14.70;7.60;;;19.90;99.90;;;;;;5136289;27;20083;-83
2022/10/30 11:08:32;;;;;;;21.70;7.45;;;19.80;99.90;;;;;;5136366;27;20143;-83
2022/10/30 11:11:16;;;;;;;12.68;7.20;;;19.80;99.90;;;;;;5106149;27;20031;-83
2022/10/30 11:14:00;;;;;;;13.65;7.28;;;19.80;99.90;;;;;;5135648;27;20123;-83
2022/10/30 11:17:02;;;;;;;17.45;8.05;;;19.80;99.90;;;;;;5135697;27;20440;-83
2022/10/30 11:19:50;;;;;;;19.17;7.60;;;19.80;99.90;;;;;;5135373;27;20502;-83
2022/10/30 11:22:39;;;;;;;19.35;7.80;;;19.80;99.90;;;;;;5135729;27;20459;-83
2022/10/30 11:25:33;;;;;;;16.13;8.32;;;19.80;99.90;;;;;;5120588;27;20050;-84
2022/10/30 11:28:35;;;;;;;21.50;8.93;;;19.90;99.90;;;;;;5135735;27;20130;-84
2022/10/30 11:31:33;;;;;;;15.27;7.35;;;19.80;99.90;;;;;;5135870;27;20034;-84
2022/10/30 11:34:18;;;;;;;16.52;8.68;;;19.80;99.90;;;;;;5134547;27;20547;-83
2022/10/30 11:37:03;;;;;;;15.07;8.15;;;19.80;99.90;;;;;;5135013;27;20034;-84
2022/10/30 11:40:01;;;;;;;17.83;9.60;;;19.90;99.90;;;;;;5119515;27;20061;-84
2022/10/30 11:43:01;;;;;;;18.92;9.13;;;19.90;99.90;;;;;;5135090;27;20121;-84
2022/10/30 11:45:46;;;;;;;20.55;8.63;;;19.90;99.90;;;;;;5135166;27;20395;-84
2022/10/30 11:48:32;;;;;;;15.38;8.95;;;19.80;99.90;;;;;;5135467;27;20042;-83
2022/10/30 11:51:30;;;;;;;16.77;8.85;;;19.90;99.90;;;;;;5119902;27;20033;-83
2022/10/30 11:54:20;;;;;;;20.17;8.45;;;19.90;99.90;;;;;;5135602;27;20505;-82
2022/10/30 11:57:16;;;;;;;19.88;8.90;;;20.00;99.90;;;;;;5134674;27;20091;-82
2022/10/30 12:00:04;;;;;;;23.15;9.07;;;20.10;99.90;;;;;;5134760;27;20076;-83
2022/10/30 12:02:51;;;;;;;18.38;8.23;;;20.20;99.90;;;;;;5134668;27;20127;-83
2022/10/30 12:05:40;;;;;;;16.17;7.82;;;20.40;99.90;;;;;;5135007;27;20118;-83
2022/10/30 12:08:24;;;;;;;17.48;7.97;;;20.40;99.90;;;;;;5135120;27;20045;-82
2022/10/30 12:11:09;;;;;;;16.02;8.20;;;20.40;99.90;;;;;;5101128;27;20502;-83
2022/10/30 12:13:54;;;;;;;18.63;7.68;;;20.30;99.90;;;;;;5134581;27;20043;-83
2022/10/30 12:16:44;;;;;;;21.98;8.15;;;20.30;99.90;;;;;;5134786;27;20026;-82
2022/10/30 12:19:31;;;;;;;18.17;7.47;;;20.10;99.90;;;;;;5119196;27;20092;-82
2022/10/30 12:22:33;;;;;;;17.10;8.02;;;20.20;99.90;;;;;;5134739;27;20042;-82
2022/10/30 12:25:28;;;;;;;18.92;7.97;;;20.10;99.90;;;;;;5106315;27;20076;-82
2022/10/30 12:28:18;;;;;;;13.63;7.55;;;19.70;99.90;;;;;;5134055;27;20030;-83
2022/10/30 12:31:15;;;;;;;16.27;7.90;;;20.00;99.90;;;;;;5134214;27;20160;-83
2022/10/30 12:34:15;;;;;;;16.40;8.45;;;20.00;99.90;;;;;;5134154;27;20398;-82
2022/10/30 12:37:06;;;;;;;16.77;8.48;;;19.90;99.90;;;;;;5133904;27;20034;-82
2022/10/30 12:39:57;;;;;;;16.77;7.50;;;19.80;99.90;;;;;;5134282;27;20069;-82
2022/10/30 12:43:17;;;;;;;16.17;8.45;;;19.70;99.90;;;;;;5134527;27;20504;-82
2022/10/30 12:46:47;;;;;;;20.33;9.70;;;19.70;99.90;;;;;;5101157;27;20046;-82
2022/10/30 12:49:41;;;;;;;21.98;8.20;;;19.80;99.90;;;;;;5098937;27;20088;-82
2022/10/30 12:52:54;;;;;;;19.58;8.65;;;19.70;99.90;;;;;;5134314;27;20034;-82
2022/10/30 12:55:49;;;;;;;16.00;8.85;;;20.00;99.90;;;;;;5134047;27;20030;-82
2022/10/30 12:58:56;;;;;;;21.65;8.98;;;19.70;99.90;;;;;;5134193;27;20080;-82
2022/10/30 13:01:58;;;;;;;18.23;8.73;;;20.00;99.90;;;;;;5134090;27;20095;-82
2022/10/30 13:04:46;;;;;;;17.35;9.07;;;19.80;99.90;;;;;;5134181;27;20119;-82
2022/10/30 13:07:36;;;;;;;16.60;7.78;;;19.80;99.90;;;;;;5133850;27;20569;-82
2022/10/30 13:10:34;;;;;;;19.10;8.63;;;19.90;99.90;;;;;;5123321;27;20035;-82
2022/10/30 13:13:32;;;;;;;15.23;8.02;;;20.00;99.90;;;;;;5119434;27;20044;-83
2022/10/30 13:16:27;;;;;;;20.40;8.32;;;19.70;99.90;;;;;;5117628;27;20078;-82
2022/10/30 13:19:12;;;;;;;20.55;8.85;;;20.00;99.90;;;;;;5133118;27;20118;-82
2022/10/30 13:22:19;;;;;;;18.90;8.07;;;20.10;99.90;;;;;;5133624;27;20038;-84
2022/10/30 13:25:36;;;;;;;17.15;8.25;;;20.20;99.90;;;;;;5112573;27;20050;-83
2022/10/30 13:28:34;;;;;;;16.38;7.65;;;20.40;99.90;;;;;;5102562;27;20039;-83
2022/10/30 13:31:46;;;;;;;21.80;8.95;;;20.50;99.90;;;;;;5127966;27;20030;-83
2022/10/30 13:34:42;;;;;;;18.65;7.22;;;20.50;99.90;;;;;;5121777;27;20069;-84
2022/10/30 13:37:42;;;;;;;13.75;7.47;;;20.50;99.90;;;;;;5124312;27;20083;-83
2022/10/30 13:40:48;;;;;;;15.27;7.68;;;20.50;99.90;;;;;;5134447;27;20099;-83
2022/10/30 13:44:03;;;;;;;14.40;7.32;;;20.50;99.90;;;;;;5131114;27;20042;-83
2022/10/30 13:47:19;;;;;;;20.00;6.38;;;20.40;99.90;;;;;;5130897;27;20100;-83
2022/10/30 13:50:32;;;;;;;20.75;6.90;;;20.20;99.90;;;;;;5142932;27;20091;-83
2022/10/30 13:53:22;;;;;;;14.52;6.00;;;20.20;99.90;;;;;;5142103;27;20450;-83
2022/10/30 13:56:17;;;;;;;11.50;5.78;;;20.20;99.90;;;;;;5135178;27;20490;-83
2022/10/30 13:59:06;;;;;;;11.85;5.70;;;20.00;99.90;;;;;;5139439;27;20037;-83
2022/10/30 14:01:51;;;;;;;16.95;6.03;;;;;;;;;;5143116;27;20473;-83
2022/10/30 14:04:49;;;;;;;19.25;7.32;;;20.00;99.90;;;;;;5138267;27;20064;-83
2022/10/30 14:07:55;;;;;;;15.80;6.50;;;20.00;99.90;;;;;;5121620;27;20596;-83
2022/10/30 14:10:42;;;;;;;15.18;6.55;;;20.00;99.90;;;;;;5123646;27;20039;-83
2022/10/30 14:13:42;;;;;;;13.82;5.88;;;19.90;99.90;;;;;;5104353;28;20493;-83
2022/10/30 14:16:32;;;;;;;14.82;6.40;;;20.20;99.90;;;;;;5132381;28;20033;-84
2022/10/30 14:19:17;;;;;;;17.88;6.75;;;19.90;99.90;;;;;;5132496;28;20084;-84
2022/10/30 14:22:01;;;;;;;14.52;6.18;;;19.70;99.90;;;;;;5120699;28;20088;-84
2022/10/30 14:24:45;;;;;;;28.05;7.72;;;20.30;99.90;;;;;;5133256;27;20050;-84
2022/10/30 14:27:31;;;;;;;15.18;6.55;;;19.70;99.90;;;;;;5117010;28;20509;-83
2022/10/30 14:30:19;;;;;;;18.67;7.20;;;19.70;99.90;;;;;;5132233;28;20092;-84
2022/10/30 14:33:03;;;;;;;15.63;6.40;;;20.10;99.90;;;;;;5117453;28;20421;-84
2022/10/30 14:36:11;;;;;;;18.35;7.65;;;19.60;99.90;;;;;;5117445;28;20039;-85
2022/10/30 14:39:09;;;;;;;19.30;7.90;;;20.00;99.90;;;;;;5117331;28;20539;-85
2022/10/30 14:42:12;;;;;;;19.33;8.63;;;19.60;99.90;;;;;;5132630;28;20148;-85
2022/10/30 14:45:15;;;;;;;19.83;7.70;;;19.50;99.90;;;;;;5132605;28;20034;-85
2022/10/30 14:48:10;;;;;;;15.50;7.30;;;19.40;99.90;;;;;;5132901;28;20087;-84
2022/10/30 14:51:18;;;;;;;18.58;8.27;;;19.30;99.90;;;;;;5117159;28;20161;-85